createdAt,value
2022-10-12T00:00:56.046Z,101365.34
2022-10-12T00:03:44.553Z,101369.03
2022-10-12T00:06:32.966Z,101367.00
2022-10-12T00:09:21.368Z,101368.00
2022-10-12T00:12:11.307Z,101373.44
2022-10-12T00:14:59.722Z,101369.13
2022-10-12T00:17:48.193Z,101377.47
2022-10-12T00:20:36.871Z,101375.81
2022-10-12T00:23:25.281Z,101375.81
2022-10-12T00:26:15.229Z,101363.47
2022-10-12T00:29:05.459Z,101366.78
2022-10-12T00:31:53.918Z,101374.16
2022-10-12T00:34:42.373Z,101371.66
2022-10-12T00:37:30.919Z,101381.03
2022-10-12T00:40:20.346Z,101373.22
2022-10-12T00:43:27.423Z,101376.53
2022-10-12T00:46:20.559Z,101373.41
2022-10-12T00:49:11.964Z,101376.88
2022-10-12T00:52:02.502Z,101373.56
2022-10-12T00:54:52.465Z,101373.22
2022-10-12T00:57:45.890Z,101369.06
2022-10-12T01:00:36.412Z,101369.88
2022-10-12T01:03:26.401Z,101366.56
2022-10-12T01:06:15.193Z,101364.88
2022-10-12T01:09:03.830Z,101365.22
2022-10-12T01:11:52.243Z,101367.56
2022-10-12T01:14:40.725Z,101357.84
2022-10-12T01:17:36.965Z,101352.50
2022-10-12T01:20:55.870Z,101360.53
2022-10-12T01:24:08.150Z,101364.03
2022-10-12T01:27:06.659Z,101360.53
2022-10-12T01:30:21.903Z,101355.84
2022-10-12T01:33:26.727Z,101367.19
2022-10-12T01:36:19.204Z,101359.28
2022-10-12T01:39:12.314Z,101359.28
2022-10-12T01:42:02.702Z,101359.50
2022-10-12T01:44:51.160Z,101360.50
2022-10-12T01:47:41.960Z,101359.28
2022-10-12T01:50:40.765Z,101361.44
2022-10-12T01:53:33.093Z,101356.44
2022-10-12T01:56:30.367Z,101349.44
2022-10-12T01:59:21.723Z,101350.25
2022-10-12T02:02:17.392Z,101344.91
2022-10-12T02:05:12.113Z,101342.91
2022-10-12T02:08:06.895Z,101344.91
2022-10-12T02:10:57.555Z,101340.41
2022-10-12T02:13:49.011Z,101344.09
2022-10-12T02:16:40.949Z,101337.09
2022-10-12T02:19:32.345Z,101333.41
2022-10-12T02:22:22.299Z,101350.72
2022-10-12T02:25:13.388Z,101348.59
2022-10-12T02:28:05.480Z,101356.44
2022-10-12T02:30:55.873Z,101354.78
2022-10-12T02:33:48.256Z,101355.16
2022-10-12T02:36:39.726Z,101350.47
2022-10-12T02:39:32.711Z,101354.31
2022-10-12T02:42:23.964Z,101347.47
2022-10-12T02:45:13.372Z,101347.47
2022-10-12T02:48:02.395Z,101349.44
2022-10-12T02:50:51.815Z,101350.25
2022-10-12T02:53:40.539Z,101348.31
2022-10-12T02:56:30.405Z,101337.47
2022-10-12T02:59:19.959Z,101340.78
2022-10-12T03:02:08.929Z,101349.44
2022-10-12T03:04:57.328Z,101346.50
2022-10-12T03:07:45.749Z,101351.66
2022-10-12T03:10:34.184Z,101348.69
2022-10-12T03:13:23.948Z,101348.47
2022-10-12T03:16:13.153Z,101339.81
2022-10-12T03:19:01.537Z,101338.50
2022-10-12T03:21:49.916Z,101345.03
2022-10-12T03:24:39.649Z,101344.50
2022-10-12T03:27:28.043Z,101345.03
2022-10-12T03:30:18.010Z,101347.69
2022-10-12T03:33:06.501Z,101339.66
2022-10-12T03:35:56.145Z,101334.97
2022-10-12T03:38:44.584Z,101345.88
2022-10-12T03:41:33.254Z,101340.53
2022-10-12T03:44:21.735Z,101333.50
2022-10-12T03:47:11.496Z,101331.84
2022-10-12T03:49:59.958Z,101333.50
2022-10-12T03:52:48.408Z,101340.84
2022-10-12T03:55:37.002Z,101339.88
2022-10-12T03:58:25.396Z,101337.53
2022-10-12T04:01:13.903Z,101343.38
2022-10-12T04:04:03.793Z,101336.00
2022-10-12T04:06:52.201Z,101334.31
2022-10-12T04:09:40.717Z,101340.22
2022-10-12T04:12:29.452Z,101332.19
2022-10-12T04:15:18.980Z,101335.22
2022-10-12T04:18:07.561Z,101337.53
2022-10-12T04:20:57.437Z,101337.91
2022-10-12T04:23:45.888Z,101337.53
2022-10-12T04:26:34.402Z,101336.25
2022-10-12T04:29:23.110Z,101325.97
2022-10-12T04:32:12.628Z,101331.72
2022-10-12T04:35:01.367Z,101324.88
2022-10-12T04:37:51.370Z,101323.22
2022-10-12T04:40:39.726Z,101333.25
2022-10-12T04:43:28.248Z,101325.72
2022-10-12T04:46:16.711Z,101332.22
2022-10-12T04:49:05.133Z,101335.38
2022-10-12T04:51:54.600Z,101326.88
2022-10-12T04:54:44.379Z,101326.88
2022-10-12T04:57:32.775Z,101334.38
2022-10-12T05:00:21.409Z,101331.56
2022-10-12T05:03:10.111Z,101336.91
2022-10-12T05:05:58.550Z,101339.72
2022-10-12T05:08:47.082Z,101334.91
2022-10-12T05:11:36.835Z,101331.88
2022-10-12T05:14:25.267Z,101339.53
2022-10-12T05:17:13.761Z,101341.53
2022-10-12T05:20:02.199Z,101343.56
2022-10-12T05:22:50.709Z,101334.06
2022-10-12T05:25:39.384Z,101331.22
2022-10-12T05:28:29.343Z,101333.53
2022-10-12T05:31:17.859Z,101336.19
2022-10-12T05:34:06.623Z,101337.72
2022-10-12T05:36:55.311Z,101340.59
2022-10-12T05:39:43.800Z,101335.25
2022-10-12T05:42:32.228Z,101332.22
2022-10-12T05:45:22.044Z,101340.59
2022-10-12T05:48:10.523Z,101329.91
2022-10-12T05:50:58.969Z,101328.19
2022-10-12T05:53:47.540Z,101335.25
2022-10-12T05:56:35.964Z,101328.19
2022-10-12T05:59:24.485Z,101329.56
2022-10-12T06:02:16.654Z,101341.06
2022-10-12T06:05:05.705Z,101343.06
2022-10-12T06:07:54.344Z,101339.06
2022-10-12T06:10:46.482Z,101336.09
2022-10-12T06:13:35.249Z,101345.31
2022-10-12T06:16:24.060Z,101348.09
2022-10-12T06:19:14.002Z,101348.09
2022-10-12T06:22:02.508Z,101351.31
2022-10-12T06:24:51.201Z,101348.47
2022-10-12T06:27:39.993Z,101359.16
2022-10-12T06:30:28.539Z,101359.16
2022-10-12T06:33:17.006Z,101353.97
2022-10-12T06:36:07.293Z,101354.50
2022-10-12T06:38:56.091Z,101363.16
2022-10-12T06:41:44.543Z,101367.34
2022-10-12T06:44:33.085Z,101368.88
2022-10-12T06:47:21.664Z,101367.56
2022-10-12T06:50:11.021Z,101372.53
2022-10-12T06:53:00.839Z,101379.06
2022-10-12T06:55:49.455Z,101376.03
2022-10-12T06:58:38.065Z,101382.91
2022-10-12T07:01:26.694Z,101363.03
2022-10-12T07:04:15.142Z,101372.41
2022-10-12T07:07:03.714Z,101374.91
2022-10-12T07:09:54.319Z,101375.75
2022-10-12T07:12:42.851Z,101372.56
2022-10-12T07:15:31.349Z,101372.41
2022-10-12T07:18:19.813Z,101371.94
2022-10-12T07:21:08.474Z,101369.25
2022-10-12T07:23:56.963Z,101369.91
2022-10-12T07:26:49.291Z,101368.25
2022-10-12T07:29:39.489Z,101364.22
2022-10-12T07:32:27.999Z,101366.22
2022-10-12T07:35:16.600Z,101355.53
2022-10-12T07:38:05.275Z,101348.19
2022-10-12T07:40:54.350Z,101352.72
2022-10-12T07:43:44.700Z,101354.84
2022-10-12T07:46:33.195Z,101354.84
2022-10-12T07:49:22.921Z,101355.22
2022-10-12T07:52:11.779Z,101351.53
2022-10-12T07:55:00.303Z,101348.66
2022-10-12T07:57:48.733Z,101352.34
2022-10-12T08:00:38.570Z,101354.00
2022-10-12T08:03:27.002Z,101352.19
2022-10-12T08:06:19.807Z,101351.19
2022-10-12T08:09:08.298Z,101354.84
2022-10-12T08:11:57.144Z,101351.19
2022-10-12T08:14:45.688Z,101343.81
2022-10-12T08:17:35.549Z,101349.16
2022-10-12T08:20:23.997Z,101347.50
2022-10-12T08:23:12.727Z,101338.97
2022-10-12T08:26:01.223Z,101343.44
2022-10-12T08:28:49.798Z,101336.09
2022-10-12T08:31:38.491Z,101337.78
2022-10-12T08:34:28.914Z,101336.78
2022-10-12T08:37:17.348Z,101339.25
2022-10-12T08:40:06.776Z,101347.09
2022-10-12T08:42:58.592Z,101337.22
2022-10-12T08:45:49.519Z,101336.91
2022-10-12T08:48:46.891Z,101332.56
2022-10-12T08:51:46.002Z,101325.00
2022-10-12T08:54:39.249Z,101324.03
2022-10-12T08:57:27.840Z,101318.31
2022-10-12T09:00:18.006Z,101320.66
2022-10-12T09:03:15.367Z,101314.50
2022-10-12T09:06:11.383Z,101314.16
2022-10-12T09:09:08.129Z,101313.34
2022-10-12T09:12:09.290Z,101322.00
2022-10-12T09:15:08.109Z,101309.28
2022-10-12T09:17:57.697Z,101312.59
2022-10-12T09:20:49.070Z,101305.22
2022-10-12T09:23:40.639Z,101304.88
2022-10-12T09:26:35.917Z,101302.50
2022-10-12T09:29:26.959Z,101311.53
2022-10-12T09:32:38.204Z,101307.00
2022-10-12T09:35:26.704Z,101302.50
2022-10-12T09:38:15.367Z,101298.81
2022-10-12T09:41:03.764Z,101297.81
2022-10-12T09:43:55.719Z,101288.13
2022-10-12T09:46:47.266Z,101288.78
2022-10-12T09:49:43.494Z,101287.78
2022-10-12T09:52:33.875Z,101289.44
2022-10-12T09:58:21.573Z,101284.56
2022-10-12T10:01:19.119Z,101287.06
2022-10-12T10:04:10.977Z,101283.75
2022-10-12T10:07:15.939Z,101275.53
2022-10-12T10:10:16.609Z,101275.72
2022-10-12T10:13:06.452Z,101281.72
2022-10-12T10:16:05.156Z,101269.00
2022-10-12T10:18:58.995Z,101272.69
2022-10-12T10:21:47.575Z,101266.84
2022-10-12T10:24:37.756Z,101266.50
2022-10-12T10:27:43.721Z,101262.81
2022-10-12T10:30:38.077Z,101257.81
2022-10-12T10:33:29.213Z,101262.34
2022-10-12T10:36:24.602Z,101263.19
2022-10-12T10:39:19.306Z,101257.81
2022-10-12T10:42:11.315Z,101256.00
2022-10-12T10:45:01.699Z,101257.81
2022-10-12T10:47:50.456Z,101253.31
2022-10-12T10:50:40.873Z,101253.31
2022-10-12T10:53:33.032Z,101252.97
2022-10-12T10:56:25.124Z,101243.94
2022-10-12T10:59:18.374Z,101242.25
2022-10-12T11:02:17.047Z,101244.28
2022-10-12T11:05:09.475Z,101239.75
2022-10-12T11:07:59.417Z,101229.91
2022-10-12T11:10:52.976Z,101235.91
2022-10-12T11:13:44.655Z,101242.91
2022-10-12T11:16:37.508Z,101231.38
2022-10-12T11:19:31.371Z,101222.53
2022-10-12T11:22:23.229Z,101219.69
2022-10-12T11:25:19.915Z,101218.00
2022-10-12T11:28:10.083Z,101216.84
2022-10-12T11:30:58.729Z,101212.53
2022-10-12T11:33:48.266Z,101209.47
2022-10-12T11:36:55.695Z,101197.13
2022-10-12T11:39:51.712Z,101196.94
2022-10-12T11:42:43.599Z,101196.94
2022-10-12T11:45:39.922Z,101195.94
2022-10-12T11:48:32.927Z,101189.41
2022-10-12T11:51:21.346Z,101187.53
2022-10-12T11:54:17.642Z,101191.44
2022-10-12T11:57:09.842Z,101180.75
2022-10-12T12:00:00.739Z,101179.44
2022-10-12T12:02:54.097Z,101183.16
2022-10-12T12:05:42.684Z,101174.69
2022-10-12T12:08:59.544Z,101165.38
2022-10-12T12:11:47.968Z,101166.38
2022-10-12T12:14:48.206Z,101161.25
2022-10-12T12:17:38.094Z,101163.25
2022-10-12T12:21:03.187Z,101160.22
2022-10-12T12:23:54.378Z,101157.91
2022-10-12T12:26:48.522Z,101153.22
2022-10-12T12:29:37.057Z,101148.53
2022-10-12T12:32:26.912Z,101155.22
2022-10-12T12:35:31.998Z,101139.66
2022-10-12T12:38:30.553Z,101139.56
2022-10-12T12:41:20.111Z,101137.19
2022-10-12T12:44:38.226Z,101149.06
2022-10-12T12:47:46.814Z,101146.56
2022-10-12T12:50:37.305Z,101141.59
2022-10-12T12:53:27.245Z,101138.91
2022-10-12T12:56:20.819Z,101138.75
2022-10-12T12:59:30.206Z,101146.56
2022-10-12T13:02:39.843Z,101137.53
2022-10-12T13:06:01.773Z,101136.28
2022-10-12T13:09:17.480Z,101130.47
2022-10-12T13:12:21.089Z,101127.41
2022-10-12T13:15:31.139Z,101124.38
2022-10-12T13:18:49.410Z,101125.03
2022-10-12T13:21:40.765Z,101123.00
2022-10-12T13:24:34.740Z,101122.63
2022-10-12T13:27:26.100Z,101112.91
2022-10-12T13:30:24.565Z,101108.66
2022-10-12T13:33:17.428Z,101110.47
2022-10-12T13:36:08.875Z,101106.16
2022-10-12T13:38:58.626Z,101105.13
2022-10-12T13:41:50.128Z,101101.25
2022-10-12T13:44:40.269Z,101096.66
2022-10-12T13:47:30.303Z,101094.63
2022-10-12T13:50:22.918Z,101094.06
2022-10-12T13:53:16.615Z,101093.59
2022-10-12T13:56:09.075Z,101088.25
2022-10-12T13:59:04.242Z,101079.69
2022-10-12T14:01:58.006Z,101076.19
2022-10-12T14:04:46.493Z,101071.56
2022-10-12T14:07:37.109Z,101065.47
2022-10-12T14:10:28.333Z,101072.69
2022-10-12T14:13:21.875Z,101068.53
2022-10-12T14:16:12.929Z,101067.72
2022-10-12T14:19:21.539Z,101072.69
2022-10-12T14:22:10.249Z,101057.84
2022-10-12T14:25:11.494Z,101062.00
2022-10-12T14:28:01.401Z,101067.34
2022-10-12T14:30:53.183Z,101062.81
2022-10-12T14:33:43.070Z,101058.31
2022-10-12T14:36:31.986Z,101059.31
2022-10-12T14:39:20.740Z,101051.31
2022-10-12T14:42:20.733Z,101043.91
2022-10-12T14:45:24.655Z,101042.28
2022-10-12T14:48:15.711Z,101041.41
2022-10-12T14:51:05.793Z,101036.91
2022-10-12T14:54:01.118Z,101035.66
2022-10-12T14:56:49.554Z,101039.13
2022-10-12T14:59:38.058Z,101034.63
2022-10-12T15:02:27.876Z,101031.31
2022-10-12T15:05:18.686Z,101034.00
2022-10-12T15:08:09.292Z,101030.72
2022-10-12T15:10:57.893Z,101033.22
2022-10-12T15:13:46.514Z,101026.22
2022-10-12T15:16:35.004Z,101018.13
2022-10-12T15:19:23.446Z,101025.69
2022-10-12T15:22:13.474Z,101020.16
2022-10-12T15:25:03.226Z,101019.69
2022-10-12T15:27:51.704Z,101015.38
2022-10-12T15:31:04.252Z,101011.88
2022-10-12T15:33:48.555Z,101015.19
2022-10-12T15:36:37.101Z,101020.63
2022-10-12T15:39:25.511Z,101008.84
2022-10-12T15:42:15.290Z,101019.59
2022-10-12T15:45:03.678Z,101023.66
2022-10-12T15:47:53.341Z,101027.69
2022-10-12T15:50:43.309Z,101027.69
2022-10-12T15:53:31.824Z,101011.81
2022-10-12T15:56:20.643Z,101018.13
2022-10-12T15:59:10.440Z,101019.97
2022-10-12T16:01:59.704Z,101017.13
2022-10-12T16:04:48.142Z,101006.81
2022-10-12T16:07:36.524Z,101008.94
2022-10-12T16:10:26.895Z,101023.56
2022-10-12T16:13:15.590Z,101013.09
2022-10-12T16:16:05.466Z,101018.81
2022-10-12T16:18:54.222Z,101013.47
2022-10-12T16:21:43.983Z,101015.50
2022-10-12T16:24:32.410Z,101011.56
2022-10-12T16:27:21.234Z,101017.25
2022-10-12T16:30:11.313Z,101017.53
2022-10-12T16:33:01.107Z,101011.19
2022-10-12T16:35:49.513Z,101017.63
2022-10-12T16:38:37.953Z,101021.50
2022-10-12T16:41:29.257Z,101017.81
2022-10-12T16:44:20.596Z,101030.84
2022-10-12T16:47:10.718Z,101028.81
2022-10-12T16:50:00.451Z,101023.47
2022-10-12T16:52:49.245Z,101030.75
2022-10-12T16:55:39.840Z,101030.66
2022-10-12T16:58:28.331Z,101032.69
2022-10-12T17:01:16.745Z,101021.00
2022-10-12T17:04:05.495Z,101026.97
2022-10-12T17:06:55.282Z,101023.28
2022-10-12T17:09:43.964Z,101030.94
2022-10-12T17:12:32.443Z,101026.69
2022-10-12T17:15:22.328Z,101026.53
2022-10-12T17:18:11.025Z,101025.78
2022-10-12T17:20:59.894Z,101037.47
2022-10-12T17:23:50.047Z,101031.03
2022-10-12T17:26:40.984Z,101039.69
2022-10-12T17:29:37.629Z,101040.53
2022-10-12T17:32:26.187Z,101038.03
2022-10-12T17:35:14.559Z,101046.69
2022-10-12T17:38:02.973Z,101038.97
2022-10-12T17:40:52.717Z,101038.56
2022-10-12T17:43:41.169Z,101031.19
2022-10-12T17:46:29.721Z,101037.72
2022-10-12T17:49:24.532Z,101034.88
2022-10-12T17:52:13.880Z,101030.81
2022-10-12T17:55:02.643Z,101031.50
2022-10-12T17:57:52.736Z,101028.09
2022-10-12T18:00:41.206Z,101025.41
2022-10-12T18:03:29.870Z,101031.38
2022-10-12T18:06:21.301Z,101030.03
2022-10-12T18:09:11.766Z,101035.38
2022-10-12T18:12:00.187Z,101034.34
2022-10-12T18:14:50.145Z,101034.78
2022-10-12T18:17:38.907Z,101029.09
2022-10-12T18:20:27.524Z,101025.38
2022-10-12T18:23:16.128Z,101018.47
2022-10-12T18:26:05.334Z,101025.84
2022-10-12T18:28:55.569Z,101035.31
2022-10-12T18:31:45.347Z,101029.78
2022-10-12T18:34:36.731Z,101028.66
2022-10-12T18:37:25.455Z,101035.03
2022-10-12T18:40:14.183Z,101028.66
2022-10-12T18:43:02.702Z,101027.81
2022-10-12T18:45:51.175Z,101027.66
2022-10-12T18:48:41.503Z,101033.81
2022-10-12T18:51:31.243Z,101026.63
2022-10-12T18:54:20.277Z,101026.25
2022-10-12T18:57:08.671Z,101027.25
2022-10-12T18:59:57.222Z,101031.22
2022-10-12T19:02:45.798Z,101031.47
2022-10-12T19:05:35.584Z,101036.84
2022-10-12T19:08:24.048Z,101034.41
2022-10-12T19:11:13.797Z,101026.38
2022-10-12T19:14:03.734Z,101030.34
2022-10-12T19:16:52.561Z,101038.38
2022-10-12T19:19:41.172Z,101029.97
2022-10-12T19:22:30.987Z,101028.31
2022-10-12T19:25:19.393Z,101032.00
2022-10-12T19:28:07.836Z,101024.63
2022-10-12T19:30:56.311Z,101029.13
2022-10-12T19:33:47.882Z,101029.97
2022-10-12T19:36:36.578Z,101026.25
2022-10-12T19:39:26.613Z,101025.25
2022-10-12T19:42:15.317Z,101017.22
2022-10-12T19:45:03.838Z,101017.84
2022-10-12T19:47:52.299Z,101017.47
2022-10-12T19:50:41.520Z,101012.72
2022-10-12T19:53:30.071Z,101003.66
2022-10-12T19:56:20.888Z,101008.56
2022-10-12T19:59:11.629Z,100997.84
2022-10-12T20:01:59.997Z,101008.16
2022-10-12T20:04:53.873Z,101007.16
2022-10-12T20:07:42.375Z,101002.44
2022-10-12T20:10:30.803Z,101011.88
2022-10-12T20:13:20.867Z,101016.81
2022-10-12T20:16:09.905Z,101001.63
2022-10-12T20:18:58.299Z,101013.13
2022-10-12T20:21:46.724Z,101008.56
2022-10-12T20:24:35.113Z,101011.47
2022-10-12T20:27:23.526Z,101013.53
2022-10-12T20:30:14.130Z,101010.22
2022-10-12T20:33:02.683Z,101011.69
2022-10-12T20:35:51.473Z,101005.75
2022-10-12T20:38:40.571Z,101017.66
2022-10-12T20:41:32.598Z,101016.38
2022-10-12T20:44:21.034Z,101013.91
2022-10-12T20:47:11.189Z,101021.31
2022-10-12T20:49:59.688Z,101006.91
2022-10-12T20:52:48.914Z,101004.03
2022-10-12T20:55:40.429Z,101004.03
2022-10-12T20:58:28.915Z,101003.22
2022-10-12T21:01:18.608Z,101009.00
2022-10-12T21:04:10.135Z,101008.34
2022-10-12T21:06:58.606Z,101006.44
2022-10-12T21:09:50.346Z,100998.59
2022-10-12T21:12:38.800Z,101001.91
2022-10-12T21:15:27.343Z,100990.22
2022-10-12T21:18:15.892Z,100984.22
2022-10-12T21:21:11.578Z,100986.25
2022-10-12T21:24:01.747Z,100991.22
2022-10-12T21:26:53.236Z,100988.75
2022-10-12T21:29:41.634Z,100996.94
2022-10-12T21:32:31.717Z,100999.25
2022-10-12T21:35:20.234Z,100995.94
2022-10-12T21:38:10.274Z,100988.75
2022-10-12T21:41:00.085Z,100985.88
2022-10-12T21:43:49.373Z,100983.84
2022-10-12T21:46:38.381Z,100997.84
2022-10-12T21:49:26.789Z,100991.31
2022-10-12T21:52:16.981Z,100993.31
2022-10-12T21:55:07.275Z,100986.75
2022-10-12T21:57:55.791Z,100993.78
2022-10-12T22:00:44.380Z,100994.78
2022-10-12T22:03:32.913Z,100993.78
2022-10-12T22:06:22.247Z,100988.88
2022-10-12T22:09:16.272Z,100983.91
2022-10-12T22:12:06.774Z,100981.41
2022-10-12T22:14:55.249Z,100983.47
2022-10-12T22:17:43.609Z,100986.53
2022-10-12T22:20:32.262Z,100986.25
2022-10-12T22:23:20.652Z,100978.84
2022-10-12T22:26:11.862Z,100987.09
2022-10-12T22:29:03.072Z,100983.34
2022-10-12T22:31:51.515Z,100977.59
2022-10-12T22:34:39.959Z,100978.38
2022-10-12T22:37:28.822Z,100977.72
2022-10-12T22:40:17.296Z,100975.69
2022-10-12T22:43:06.087Z,100975.03
2022-10-12T22:45:56.345Z,100971.72
2022-10-12T22:48:44.999Z,100972.56
2022-10-12T22:51:35.414Z,100973.78
2022-10-12T22:54:23.970Z,100964.72
2022-10-12T22:57:15.481Z,100969.28
2022-10-12T23:00:04.897Z,100969.63
2022-10-12T23:02:54.794Z,100965.50
2022-10-12T23:05:49.475Z,100965.50
2022-10-12T23:08:38.479Z,100969.84
2022-10-12T23:11:28.824Z,100967.97
2022-10-12T23:14:17.255Z,100973.78
2022-10-12T23:17:05.771Z,100969.84
2022-10-12T23:19:55.686Z,100974.34
2022-10-12T23:22:44.214Z,100970.00
2022-10-12T23:25:32.629Z,100961.34
2022-10-12T23:28:21.160Z,100958.50
2022-10-12T23:31:11.134Z,100958.50
2022-10-12T23:34:01.246Z,100953.16
2022-10-12T23:36:51.117Z,100961.81
2022-10-12T23:39:39.535Z,100959.50
2022-10-12T23:42:27.994Z,100949.81
2022-10-12T23:45:16.709Z,100954.53
2022-10-12T23:48:05.638Z,100957.22
2022-10-12T23:50:54.150Z,100946.50
2022-10-12T23:53:44.021Z,100953.91
2022-10-12T23:56:32.591Z,100950.03
2022-10-12T23:59:25.189Z,100950.22
